Time;durP1;ratioP1;P1;durP2;ratioP2;P2;SDS_P1;SDS_P2;PMS_P1;PMS_P2;Temp;Humidity;BMP_temperature;BMP_pressure;BME280_temperature;BME280_humidity;BME280_pressure;Samples;Min_cycle;Max_cycle;Signal;HPM_P1;HPM_P2
2022/07/04 00:00:02;;;;;;;21.07;13.77;;;;;;;36.23;44.94;101387.50;6244383;23;20381;-66
2022/07/04 00:02:29;;;;;;;22.80;13.37;;;;;;;36.26;44.31;101386.94;6246295;22;20399;-65
2022/07/04 00:04:55;;;;;;;19.60;11.60;;;;;;;36.39;44.69;101378.19;6244312;23;20373;-66
2022/07/04 00:07:21;;;;;;;20.60;12.63;;;;;;;36.26;44.27;101373.41;6244406;23;20378;-66
2022/07/04 00:09:47;;;;;;;20.17;11.00;;;;;;;36.25;44.08;101369.91;6244270;23;20374;-69
2022/07/04 00:12:13;;;;;;;30.20;14.13;;;;;;;36.34;44.31;101367.44;6244165;23;20402;-69
2022/07/04 00:14:40;;;;;;;24.87;11.80;;;;;;;36.30;43.76;101366.38;6244551;23;20913;-69
2022/07/04 00:17:06;;;;;;;26.90;13.03;;;;;;;36.39;43.92;101362.00;6244200;23;20846;-66
2022/07/04 00:19:32;;;;;;;22.27;13.33;;;;;;;36.41;44.23;101362.53;6244323;23;20374;-65
2022/07/04 00:21:59;;;;;;;21.43;11.87;;;;;;;36.44;44.07;101353.03;6218823;23;20444;-66
2022/07/04 00:24:25;;;;;;;27.77;16.30;;;;;;;36.14;44.98;101354.06;6218983;23;20531;-66
2022/07/04 00:26:51;;;;;;;22.13;13.60;;;;;;;36.08;44.99;101357.91;6218916;23;20420;-66
2022/07/04 00:29:18;;;;;;;18.93;13.37;;;;;;;36.08;45.35;101366.00;6244082;23;20418;-66
2022/07/04 00:31:44;;;;;;;24.10;12.10;;;;;;;36.10;45.07;101371.94;6244105;23;20754;-67
2022/07/04 00:34:10;;;;;;;24.70;12.33;;;;;;;36.08;44.99;101364.09;6243949;23;20387;-69
2022/07/04 00:36:36;;;;;;;24.87;13.40;;;;;;;36.17;44.72;101350.81;6244027;23;20420;-69
2022/07/04 00:39:03;;;;;;;25.87;13.60;;;;;;;36.29;44.48;101343.97;6246080;22;20363;-69
2022/07/04 00:41:29;;;;;;;17.00;11.83;;;;;;;36.25;44.19;101344.81;6245760;22;20460;-66
2022/07/04 00:44:04;;;;;;;23.50;13.63;;;;;;;36.26;44.74;101355.31;6218996;23;20390;-66
2022/07/04 00:46:31;;;;;;;16.70;12.00;;;;;;;36.03;45.15;101350.63;6243856;23;20385;-69
2022/07/04 00:48:57;;;;;;;19.43;12.27;;;;;;;35.90;45.31;101348.53;6244032;23;20385;-69
2022/07/04 00:51:24;;;;;;;25.13;14.03;;;;;;;35.74;46.07;101351.34;6246096;23;20358;-70
2022/07/04 00:53:52;;;;;;;15.93;11.20;;;;;;;35.74;45.91;101340.56;6245827;22;20359;-65
2022/07/04 00:56:20;;;;;;;25.53;14.23;;;;;;;35.93;45.60;101343.44;6244053;23;20413;-66
2022/07/04 00:58:46;;;;;;;24.17;16.03;;;;;;;35.96;45.41;101345.56;6218697;23;20406;-65
2022/07/04 01:01:12;;;;;;;23.27;13.60;;;;;;;35.63;46.03;101338.19;6243846;23;20926;-66
2022/07/04 01:03:39;;;;;;;22.30;12.13;;;;;;;35.68;46.38;101340.88;6245899;22;20412;-65
2022/07/04 01:06:10;;;;;;;19.33;12.67;;;;;;;35.82;45.44;101331.06;6243305;23;20424;-65
2022/07/04 01:08:41;;;;;;;16.50;12.83;;;;;;;35.73;45.83;101321.94;6243794;23;20419;-66
2022/07/04 01:11:08;;;;;;;22.63;13.67;;;;;;;35.38;46.39;101325.63;6245737;22;20370;-66
2022/07/04 01:13:34;;;;;;;19.80;12.57;;;;;;;35.42;46.79;101318.56;6243725;23;20410;-69
2022/07/04 01:16:01;;;;;;;25.13;12.47;;;;;;;35.60;46.26;101319.84;6243619;23;20382;-69
2022/07/04 01:18:27;;;;;;;21.10;12.13;;;;;;;35.61;46.62;101319.59;6243777;23;20377;-69
2022/07/04 01:20:54;;;;;;;18.07;10.87;;;;;;;35.78;46.47;101321.88;6243439;22;20409;-66
2022/07/04 01:23:20;;;;;;;21.20;13.30;;;;;;;35.83;46.33;101311.06;6243508;23;20434;-66
2022/07/04 01:25:48;;;;;;;21.93;12.20;;;;;;;35.63;46.62;101317.41;6243574;23;20749;-66
2022/07/04 01:28:14;;;;;;;16.73;12.07;;;;;;;35.55;47.13;101319.91;6243681;23;20389;-65
2022/07/04 01:30:40;;;;;;;21.50;13.80;;;;;;;35.60;46.70;101320.66;6243658;23;20382;-66
2022/07/04 01:33:07;;;;;;;23.63;12.30;;;;;;;35.64;46.80;101320.91;6243460;23;20414;-66
2022/07/04 01:35:33;;;;;;;19.90;12.77;;;;;;;35.58;46.84;101327.41;6245546;22;20359;-66
2022/07/04 01:37:59;;;;;;;23.00;13.90;;;;;;;35.68;46.45;101330.88;6243505;23;20386;-66
2022/07/04 01:40:26;;;;;;;32.10;17.40;;;;;;;35.76;46.74;101330.28;6245340;22;20375;-66
2022/07/04 01:42:52;;;;;;;29.17;13.10;;;;;;;35.73;46.26;101328.16;6243455;23;20426;-66
2022/07/04 01:45:18;;;;;;;25.10;12.57;;;;;;;35.64;46.41;101331.69;6243625;23;20382;-66
2022/07/04 01:47:44;;;;;;;26.77;14.63;;;;;;;35.82;46.07;101333.75;6245278;22;20743;-66
2022/07/04 01:50:14;;;;;;;21.90;14.33;;;;;;;35.87;46.07;101354.50;6243655;23;20402;-67
2022/07/04 01:52:41;;;;;;;19.60;13.77;;;;;;;35.52;46.35;101340.13;6243506;23;20398;-65
2022/07/04 01:55:08;;;;;;;20.30;12.90;;;;;;;35.59;46.58;101337.94;6243611;23;20378;-67
2022/07/04 01:57:35;;;;;;;31.37;13.60;;;;;;;35.44;47.32;101333.44;6245246;22;20358;-69
2022/07/04 02:02:45;;;;;;;28.47;14.10;;;;;;;35.72;45.90;101318.41;6245007;23;20409;-66
2022/07/04 02:05:11;;;;;;;28.07;13.13;;;;;;;35.71;46.29;101322.19;6243350;23;20790;-66
2022/07/04 02:07:38;;;;;;;28.07;12.50;;;;;;;35.57;46.80;101310.44;6243368;23;20382;-66
2022/07/04 02:10:04;;;;;;;26.00;15.43;;;;;;;35.56;46.52;101316.91;6243351;23;20385;-66
2022/07/04 02:15:15;;;;;;;32.83;14.80;;;;;;;35.72;45.71;101309.50;6244766;23;20361;-66
2022/07/04 02:17:41;;;;;;;21.47;12.50;;;;;;;35.62;46.05;101315.78;6245035;23;20378;-66
2022/07/04 02:20:07;;;;;;;20.80;12.67;;;;;;;35.27;46.68;101304.06;6245400;23;20382;-66
2022/07/04 02:22:33;;;;;;;25.17;13.53;;;;;;;35.46;46.47;101309.66;6245161;22;20520;-67
2022/07/04 02:25:00;;;;;;;17.33;12.90;;;;;;;35.69;46.33;101310.09;6245317;23;20385;-66
2022/07/04 02:27:26;;;;;;;25.50;14.23;;;;;;;35.39;46.75;101295.66;6245183;23;20393;-66
2022/07/04 02:29:52;;;;;;;17.73;11.83;;;;;;;35.22;47.45;101293.31;6245292;23;20439;-66
2022/07/04 02:32:18;;;;;;;22.63;12.73;;;;;;;35.45;46.99;101296.47;6245188;23;20370;-67
2022/07/04 02:34:44;;;;;;;26.27;13.10;;;;;;;35.33;46.79;101298.66;6245221;23;20465;-66
2022/07/04 02:37:10;;;;;;;21.50;12.67;;;;;;;35.02;48.19;101306.88;6245176;23;20471;-66
2022/07/04 02:39:36;;;;;;;25.37;13.50;;;;;;;35.16;47.60;101305.19;6245134;23;20378;-66
2022/07/04 02:42:03;;;;;;;24.90;12.07;;;;;;;35.17;47.90;101306.84;6247152;22;20410;-66
2022/07/04 02:44:30;;;;;;;22.20;12.70;;;;;;;35.42;47.39;101314.03;6245298;23;20912;-66
2022/07/04 02:46:56;;;;;;;22.67;13.67;;;;;;;35.37;47.16;101311.31;6247160;22;20366;-66
2022/07/04 02:49:23;;;;;;;21.60;13.97;;;;;;;35.11;47.32;101317.88;6245155;23;20481;-66
2022/07/04 02:51:49;;;;;;;18.17;13.67;;;;;;;35.05;47.44;101322.53;6246933;22;20343;-66
2022/07/04 02:54:16;;;;;;;31.30;13.70;;;;;;;34.78;47.82;101314.72;6245079;23;20383;-66
2022/07/04 02:56:42;;;;;;;26.50;12.63;;;;;;;34.81;47.65;101318.78;6245040;23;20373;-66
2022/07/04 02:59:08;;;;;;;22.07;10.90;;;;;;;34.93;47.34;101312.03;6244948;23;20378;-69
2022/07/04 03:01:35;;;;;;;22.07;12.47;;;;;;;35.00;47.36;101312.56;6244819;23;20417;-69
2022/07/04 03:04:02;;;;;;;25.53;14.50;;;;;;;35.27;47.14;101316.75;6244911;23;20378;-69
2022/07/04 03:06:28;;;;;;;22.70;13.40;;;;;;;35.18;47.00;101318.44;6244954;23;20382;-66
2022/07/04 03:08:54;;;;;;;35.10;15.90;;;;;;;35.11;47.14;101323.28;6244948;23;20405;-66
2022/07/04 03:11:21;;;;;;;25.93;13.60;;;;;;;34.89;47.32;101310.13;6244876;23;20405;-66
2022/07/04 03:13:47;;;;;;;16.10;12.07;;;;;;;35.24;47.11;101303.84;6244923;23;20850;-66
2022/07/04 03:16:13;;;;;;;22.73;14.77;;;;;;;35.43;46.17;101310.25;6246649;22;20398;-65
2022/07/04 03:18:39;;;;;;;28.17;14.47;;;;;;;35.17;47.26;101298.75;6244926;23;20414;-66
2022/07/04 03:21:06;;;;;;;30.97;14.87;;;;;;;35.24;46.87;101293.84;6244725;22;20437;-66
2022/07/04 03:23:33;;;;;;;27.50;13.73;;;;;;;35.18;46.92;101292.25;6276305;22;20413;-66
2022/07/04 03:26:00;;;;;;;24.63;13.73;;;;;;;34.93;47.24;101295.06;6249847;22;20413;-66
2022/07/04 03:28:27;;;;;;;24.83;11.10;;;;;;;35.17;47.05;101298.75;6249258;22;20378;-66
2022/07/04 03:30:54;;;;;;;23.37;12.20;;;;;;;35.30;46.35;101304.59;6277474;22;20354;-66
2022/07/04 03:33:20;;;;;;;29.30;15.80;;;;;;;35.31;46.19;101300.84;6249533;22;20393;-66
2022/07/04 03:35:46;;;;;;;20.20;14.60;;;;;;;35.10;47.08;101303.59;6249565;22;20729;-69
2022/07/04 03:38:12;;;;;;;28.40;14.40;;;;;;;35.19;46.51;101288.47;6249600;22;20393;-69
2022/07/04 03:40:38;;;;;;;16.23;12.43;;;;;;;35.09;47.43;101293.09;6249502;22;20443;-69
2022/07/04 03:43:08;;;;;;;23.80;13.60;;;;;;;34.94;47.77;101300.19;6249423;22;20868;-65
2022/07/04 03:45:34;;;;;;;18.90;12.67;;;;;;;35.18;47.34;101292.25;6277345;22;20369;-66
2022/07/04 03:48:03;;;;;;;27.40;12.20;;;;;;;35.12;47.17;101293.38;6249379;22;20480;-66
2022/07/04 03:50:30;;;;;;;29.30;13.70;;;;;;;35.17;46.84;101297.91;6249477;22;20761;-66
2022/07/04 03:52:56;;;;;;;16.33;11.60;;;;;;;35.30;46.31;101283.84;6249258;22;20714;-66
2022/07/04 03:55:22;;;;;;;32.27;15.03;;;;;;;35.33;46.82;101287.88;6249425;22;20377;-67
2022/07/04 03:57:48;;;;;;;21.63;12.07;;;;;;;35.36;46.35;101279.22;6249311;22;20424;-66
2022/07/04 04:00:14;;;;;;;22.03;13.00;;;;;;;35.58;46.52;101268.84;6249662;22;20768;-66
2022/07/04 04:02:41;;;;;;;24.37;13.90;;;;;;;35.44;46.47;101270.59;6249128;22;20905;-66
2022/07/04 04:07:54;;;;;;;21.10;11.50;;;;;;;35.75;45.26;101260.38;6276452;22;20361;-69
2022/07/04 04:10:20;;;;;;;30.10;14.80;;;;;;;35.45;46.36;101270.28;6276864;22;20415;-69
2022/07/04 04:12:46;;;;;;;23.50;13.23;;;;;;;35.43;46.22;101269.78;6249450;22;20374;-69
2022/07/04 04:15:13;;;;;;;22.17;14.10;;;;;;;35.00;47.17;101261.34;6248937;22;20384;-69
2022/07/04 04:17:39;;;;;;;22.60;12.63;;;;;;;35.44;46.55;101267.88;6249321;22;20374;-69
2022/07/04 04:20:06;;;;;;;30.93;13.63;;;;;;;35.24;46.74;101269.59;6249226;22;20373;-69
2022/07/04 04:22:32;;;;;;;29.63;13.03;;;;;;;35.24;46.92;101264.19;6243627;22;20477;-69
2022/07/04 04:24:58;;;;;;;30.80;15.03;;;;;;;35.33;47.41;101267.09;6244181;23;20435;-66
2022/07/04 04:27:24;;;;;;;20.77;12.20;;;;;;;35.25;47.72;101262.28;6244034;23;20843;-66
2022/07/04 04:29:50;;;;;;;22.80;15.50;;;;;;;35.03;48.39;101270.75;6244157;23;20402;-66
2022/07/04 04:32:17;;;;;;;24.00;12.10;;;;;;;35.16;47.65;101272.03;6246121;22;20355;-66
2022/07/04 04:34:43;;;;;;;32.03;13.87;;;;;;;35.23;47.65;101277.94;6244077;23;20370;-67
2022/07/04 04:37:09;;;;;;;25.90;12.33;;;;;;;35.23;47.58;101273.34;6244318;23;20458;-66
2022/07/04 04:39:35;;;;;;;40.50;15.63;;;;;;;35.20;47.54;101279.31;6243931;23;20432;-66
2022/07/04 04:42:01;;;;;;;17.83;14.10;;;;;;;34.92;48.03;101269.97;6243907;23;20422;-66
2022/07/04 04:44:27;;;;;;;30.87;15.03;;;;;;;35.15;47.08;101278.50;6244015;23;20382;-66
2022/07/04 04:46:53;;;;;;;20.43;13.07;;;;;;;35.15;47.55;101287.41;6246139;23;20363;-66
2022/07/04 04:49:20;;;;;;;21.83;14.90;;;;;;;35.21;47.81;101282.81;6244017;23;20716;-66
2022/07/04 04:51:46;;;;;;;25.63;15.33;;;;;;;34.90;48.10;101274.00;6244045;23;20373;-67
2022/07/04 04:54:12;;;;;;;27.33;14.37;;;;;;;34.96;48.26;101284.53;6243872;23;20428;-66
2022/07/04 04:56:38;;;;;;;26.60;16.37;;;;;;;35.23;47.23;101294.09;6243838;23;20453;-67
2022/07/04 04:59:04;;;;;;;18.73;13.50;;;;;;;35.05;47.89;101282.06;6243768;23;20792;-66
2022/07/04 05:01:31;;;;;;;29.53;16.97;;;;;;;34.85;48.07;101282.91;6243772;23;20414;-66
2022/07/04 05:03:57;;;;;;;23.03;13.87;;;;;;;34.63;48.83;101285.16;6243948;23;20458;-66
2022/07/04 05:06:23;;;;;;;21.03;12.97;;;;;;;34.96;47.71;101275.63;6243714;23;20378;-66
2022/07/04 05:08:49;;;;;;;32.93;15.80;;;;;;;34.92;47.42;101272.66;6243794;23;20461;-67
2022/07/04 05:11:15;;;;;;;32.20;14.67;;;;;;;34.59;48.55;101278.69;6245643;22;20361;-67
2022/07/04 05:13:42;;;;;;;25.33;13.97;;;;;;;34.73;47.82;101285.91;6243608;23;20382;-67
2022/07/04 05:16:08;;;;;;;21.67;14.50;;;;;;;34.90;47.67;101282.91;6243770;23;20917;-67
2022/07/04 05:18:34;;;;;;;22.20;13.30;;;;;;;34.76;47.41;101292.66;6243530;23;20867;-67
2022/07/04 05:21:00;;;;;;;24.90;12.30;;;;;;;34.59;47.90;101292.16;6243539;22;20932;-67
2022/07/04 05:23:26;;;;;;;23.30;13.17;;;;;;;34.64;47.96;101292.13;6243367;23;20446;-66
2022/07/04 05:25:53;;;;;;;33.13;15.87;;;;;;;34.83;47.94;101295.06;6243892;23;20382;-67
2022/07/04 05:28:19;;;;;;;22.30;12.30;;;;;;;34.44;48.15;101298.38;6243569;23;20886;-66
2022/07/04 05:30:45;;;;;;;25.20;13.57;;;;;;;34.66;47.73;101306.94;6243600;23;20574;-67
2022/07/04 05:33:11;;;;;;;24.23;13.63;;;;;;;34.82;47.28;101302.34;6243568;23;20409;-67
2022/07/04 05:35:37;;;;;;;23.10;16.20;;;;;;;35.08;46.73;101296.88;6245511;22;20382;-67
2022/07/04 05:38:04;;;;;;;29.03;18.27;;;;;;;35.08;46.92;101304.97;6243640;23;20452;-67
2022/07/04 05:40:33;;;;;;;21.10;15.17;;;;;;;35.15;46.21;101306.28;6243345;23;20858;-66
2022/07/04 05:42:59;;;;;;;24.73;12.97;;;;;;;35.21;45.91;101307.06;6243183;23;20429;-66
2022/07/04 05:45:25;;;;;;;21.87;13.33;;;;;;;34.96;46.72;101308.78;6243132;23;20407;-67
2022/07/04 05:47:51;;;;;;;16.23;11.33;;;;;;;35.11;46.23;101307.94;6243221;23;20762;-66
2022/07/04 05:50:17;;;;;;;22.63;13.80;;;;;;;35.12;46.29;101317.63;6243111;23;20408;-66
2022/07/04 05:52:43;;;;;;;22.43;13.10;;;;;;;35.18;46.19;101319.22;6245361;23;20855;-66
2022/07/04 05:55:10;;;;;;;26.27;15.80;;;;;;;35.30;46.30;101321.59;6245373;23;20426;-67
2022/07/04 05:57:36;;;;;;;30.20;13.10;;;;;;;35.39;46.26;101321.81;6245535;23;20397;-67
2022/07/04 06:00:05;;;;;;;19.70;13.30;;;;;;;35.29;46.36;101330.75;6245373;23;20378;-70
2022/07/04 06:02:31;;;;;;;33.77;14.90;;;;;;;35.12;47.02;101330.31;6245404;23;20421;-65
2022/07/04 06:04:57;;;;;;;28.50;13.20;;;;;;;34.71;47.68;101333.09;6245423;23;20384;-65
2022/07/04 06:07:24;;;;;;;31.17;16.70;;;;;;;34.80;46.96;101336.00;6247066;22;20354;-66
2022/07/04 06:09:50;;;;;;;21.43;14.20;;;;;;;35.23;46.82;101338.06;6245248;23;20461;-67
2022/07/04 06:12:16;;;;;;;26.80;12.83;;;;;;;35.35;46.36;101336.94;6245112;23;20839;-67
2022/07/04 06:14:42;;;;;;;31.73;15.80;;;;;;;35.40;46.49;101342.31;6245400;23;20378;-66
2022/07/04 06:17:09;;;;;;;22.80;12.50;;;;;;;35.49;46.68;101346.91;6245174;23;20424;-65
2022/07/04 06:19:35;;;;;;;30.20;15.47;;;;;;;35.66;45.52;101351.09;6245312;23;20406;-68
2022/07/04 06:22:01;;;;;;;20.87;12.37;;;;;;;35.64;45.64;101346.00;6244547;22;20438;-66
2022/07/04 06:24:27;;;;;;;21.33;12.90;;;;;;;35.58;46.20;101349.81;6245157;23;20520;-65
2022/07/04 06:26:53;;;;;;;19.83;12.17;;;;;;;35.23;45.92;101359.63;6247014;23;20358;-67
2022/07/04 06:29:19;;;;;;;21.10;12.90;;;;;;;35.06;46.86;101352.97;6245498;22;20406;-67
2022/07/04 06:31:46;;;;;;;21.90;13.87;;;;;;;35.32;46.79;101357.19;6244970;23;20436;-66
2022/07/04 06:36:56;;;;;;;25.00;14.30;;;;;;;35.33;46.46;101356.09;6246646;23;20881;-67
2022/07/04 06:39:22;;;;;;;24.23;15.67;;;;;;;35.43;46.49;101356.09;6245060;23;20378;-67
2022/07/04 06:41:48;;;;;;;25.57;14.70;;;;;;;35.59;46.20;101364.09;6244932;23;20893;-67
2022/07/04 06:44:14;;;;;;;28.27;14.37;;;;;;;35.38;46.22;101366.06;6219800;23;20384;-66
2022/07/04 06:46:41;;;;;;;22.67;13.07;;;;;;;35.63;46.06;101378.66;6220085;23;20398;-67
2022/07/04 06:49:07;;;;;;;30.53;14.10;;;;;;;35.60;46.09;101371.91;6245033;23;20374;-67
2022/07/04 17:49:54;;;;;;;29.77;13.17;;;;;;;35.80;46.22;101090.31;6121004;22;20499;-74
2022/07/04 17:52:20;;;;;;;23.10;12.60;;;;;;;35.62;47.06;101091.81;6275503;22;20386;-71
2022/07/04 17:54:47;;;;;;;26.73;11.17;;;;;;;35.31;47.46;101077.78;6248347;22;20864;-71
2022/07/04 17:57:13;;;;;;;33.63;12.53;;;;;;;35.25;47.56;101076.22;6246480;22;20377;-72
2022/07/04 17:59:39;;;;;;;30.07;13.83;;;;;;;35.26;47.96;101080.50;6247007;22;20384;-73
2022/07/04 18:02:05;;;;;;;25.90;14.10;;;;;;;35.60;47.49;101082.38;6247254;22;20424;-74
2022/07/04 18:04:31;;;;;;;40.33;14.17;;;;;;;35.24;48.07;101096.19;6275910;22;20354;-74
2022/07/04 18:06:58;;;;;;;48.87;16.27;;;;;;;35.39;47.69;101095.25;6247824;22;20390;-72
2022/07/04 18:09:25;;;;;;;31.17;12.03;;;;;;;35.28;48.06;101114.19;6275582;22;20353;-72
2022/07/04 18:11:51;;;;;;;34.33;14.17;;;;;;;35.24;47.64;101090.78;6248118;22;20431;-73
2022/07/04 18:14:18;;;;;;;40.70;14.97;;;;;;;35.43;47.82;101113.31;6247938;22;20385;-74
2022/07/04 18:16:44;;;;;;;25.43;12.03;;;;;;;35.38;47.43;101116.00;6247844;22;20405;-71
2022/07/04 18:19:11;;;;;;;38.33;13.00;;;;;;;35.40;46.61;101134.59;6248358;22;20419;-72
2022/07/04 18:21:37;;;;;;;26.43;12.03;;;;;;;35.46;47.18;101141.59;6248185;22;20417;-72
2022/07/04 18:24:03;;;;;;;40.97;15.37;;;;;;;35.46;47.61;101153.19;6248107;22;20388;-72
2022/07/04 18:26:29;;;;;;;34.80;13.60;;;;;;;35.64;47.40;101159.00;6275853;22;20362;-72
2022/07/04 18:28:56;;;;;;;21.90;12.10;;;;;;;35.74;47.15;101170.50;6275777;22;20878;-72
2022/07/04 18:31:22;;;;;;;28.50;15.40;;;;;;;35.59;47.06;101188.72;6248198;22;20381;-72
2022/07/04 18:33:48;;;;;;;23.70;13.43;;;;;;;35.61;47.10;101186.56;6248109;22;20750;-72
2022/07/04 18:36:15;;;;;;;33.10;13.30;;;;;;;35.44;46.85;101205.84;6247628;22;20861;-72
2022/07/04 18:38:41;;;;;;;36.90;15.67;;;;;;;35.76;45.82;101206.13;6247477;22;20388;-72
2022/07/04 18:43:51;;;;;;;27.30;14.50;;;;;;;35.67;46.73;101226.72;6274727;22;20392;-72
2022/07/04 18:46:18;;;;;;;30.23;13.70;;;;;;;35.78;46.88;101230.91;6248034;22;20447;-72
2022/07/04 18:48:44;;;;;;;33.97;15.37;;;;;;;35.87;46.75;101235.72;6248204;22;20377;-72
2022/07/04 18:51:13;;;;;;;24.90;12.10;;;;;;;35.78;46.25;101238.22;6242388;22;20437;-72
2022/07/04 18:53:39;;;;;;;24.27;12.13;;;;;;;35.89;46.34;101228.94;6240378;23;20386;-72
2022/07/04 18:56:06;;;;;;;37.10;16.23;;;;;;;35.90;45.97;101227.84;6242970;23;20405;-72
2022/07/04 18:58:32;;;;;;;31.27;12.77;;;;;;;35.99;46.49;101230.78;6243814;23;20375;-71
2022/07/04 19:00:59;;;;;;;39.03;13.83;;;;;;;35.87;46.45;101233.03;6246734;22;20365;-72
2022/07/04 19:03:25;;;;;;;31.27;14.27;;;;;;;35.55;47.32;101233.56;6244764;23;20420;-71
2022/07/04 19:05:52;;;;;;;26.80;13.20;;;;;;;35.99;46.06;101238.91;6244938;23;20378;-72
2022/07/04 19:08:18;;;;;;;22.77;10.40;;;;;;;36.14;45.47;101236.03;6244878;23;20431;-73
2022/07/04 19:10:44;;;;;;;19.77;11.10;;;;;;;35.96;45.90;101242.94;6244188;23;20418;-72
2022/07/04 19:13:12;;;;;;;20.30;13.00;;;;;;;36.17;45.54;101243.59;6246801;22;20355;-72
2022/07/04 19:15:41;;;;;;;25.40;12.53;;;;;;;36.02;46.04;101243.72;6244624;23;20386;-72
2022/07/04 19:18:08;;;;;;;30.00;12.37;;;;;;;36.16;45.10;101252.00;6244652;23;20410;-72
2022/07/04 19:20:35;;;;;;;41.07;11.83;;;;;;;36.03;45.45;101256.97;6244605;23;20416;-72
2022/07/04 19:23:05;;;;;;;37.10;14.67;;;;;;;35.93;45.74;101258.94;6244923;23;20492;-70
2022/07/04 19:25:33;;;;;;;29.73;12.70;;;;;;;35.59;46.82;101256.97;6244659;23;20382;-72
2022/07/04 19:27:59;;;;;;;31.00;13.47;;;;;;;35.96;46.06;101253.75;6244910;23;20378;-72
2022/07/04 19:30:25;;;;;;;24.73;13.07;;;;;;;35.92;45.92;101268.13;6246846;23;20371;-72
2022/07/04 19:32:51;;;;;;;24.80;12.00;;;;;;;35.79;46.43;101253.34;6244571;23;20378;-72
2022/07/04 19:35:17;;;;;;;27.13;13.20;;;;;;;35.78;46.34;101268.72;6244876;23;20390;-72
2022/07/04 19:37:44;;;;;;;32.50;15.37;;;;;;;35.79;45.82;101281.16;6244706;23;20378;-72
2022/07/04 19:40:11;;;;;;;32.73;14.77;;;;;;;35.66;46.80;101267.44;6244347;23;20465;-72
2022/07/04 19:42:38;;;;;;;21.30;12.43;;;;;;;35.74;46.54;101277.66;6246488;22;20402;-72
2022/07/04 19:45:06;;;;;;;57.87;14.90;;;;;;;35.61;46.49;101268.31;6246606;22;20699;-72
2022/07/04 19:47:32;;;;;;;24.73;12.60;;;;;;;35.60;46.17;101276.66;6246466;22;20873;-72
2022/07/04 19:49:59;;;;;;;29.27;13.13;;;;;;;35.75;46.07;101253.09;6245499;22;20432;-72
2022/07/04 19:52:28;;;;;;;32.27;14.93;;;;;;;35.87;46.03;101263.53;6249510;22;20374;-72
2022/07/04 19:55:00;;;;;;;39.03;12.70;;;;;;;35.74;46.20;101246.09;6249475;22;20401;-72
2022/07/04 19:57:28;;;;;;;29.43;13.17;;;;;;;35.80;46.40;101249.56;6249577;22;20420;-72
2022/07/04 19:59:55;;;;;;;51.93;13.23;;;;;;;35.62;46.62;101252.94;6249486;22;20401;-72
2022/07/04 20:02:22;;;;;;;35.13;15.30;;;;;;;35.63;46.81;101259.94;6249333;22;20483;-72
2022/07/04 20:04:48;;;;;;;28.90;12.43;;;;;;;35.48;46.83;101267.06;6249590;22;20495;-72
2022/07/04 20:07:15;;;;;;;35.60;13.90;;;;;;;35.53;46.59;101282.38;6249437;22;20380;-72
2022/07/04 20:09:42;;;;;;;26.50;11.23;;;;;;;35.75;46.41;101285.47;6249120;22;20409;-72
2022/07/04 20:12:10;;;;;;;32.80;13.97;;;;;;;35.75;46.29;101292.78;6249401;22;20381;-72
2022/07/04 20:14:36;;;;;;;23.70;11.20;;;;;;;35.71;46.79;101294.41;6249628;22;20386;-72
2022/07/04 20:17:02;;;;;;;21.63;12.47;;;;;;;35.86;46.55;101299.72;6249502;22;20403;-72
2022/07/04 20:19:29;;;;;;;27.83;12.70;;;;;;;36.00;46.28;101299.91;6248767;22;20381;-73
2022/07/04 20:21:55;;;;;;;29.37;13.30;;;;;;;35.80;46.21;101293.53;6248820;22;20421;-74
2022/07/04 20:24:22;;;;;;;25.60;14.03;;;;;;;35.83;46.50;101291.38;6249124;22;20477;-74
2022/07/04 20:26:48;;;;;;;27.97;15.50;;;;;;;35.91;46.06;101291.63;6248797;22;20867;-72
2022/07/04 20:29:14;;;;;;;25.50;13.17;;;;;;;35.86;46.25;101291.63;6249353;22;20415;-72
2022/07/04 20:31:40;;;;;;;34.63;11.47;;;;;;;35.71;46.98;101295.22;6248911;22;20382;-72
2022/07/04 20:34:07;;;;;;;27.30;13.10;;;;;;;35.76;46.92;101297.88;6275937;22;20426;-74
2022/07/04 20:36:33;;;;;;;28.33;14.50;;;;;;;35.77;46.44;101293.28;6248811;22;20386;-75
2022/07/04 20:38:59;;;;;;;30.00;14.70;;;;;;;35.70;46.63;101295.50;6248812;22;20473;-73
2022/07/04 20:41:25;;;;;;;33.77;14.50;;;;;;;35.73;47.05;101294.97;6248917;22;20727;-72
2022/07/04 20:43:51;;;;;;;28.93;14.20;;;;;;;36.01;46.31;101305.00;6248855;22;20378;-72
2022/07/04 20:46:17;;;;;;;30.63;14.57;;;;;;;35.91;46.42;101301.56;6248411;22;20450;-72
2022/07/04 20:48:44;;;;;;;35.40;15.50;;;;;;;35.86;46.46;101307.00;6248660;22;20381;-73
2022/07/04 20:51:12;;;;;;;34.20;12.53;;;;;;;35.88;46.37;101307.53;6243411;22;20449;-72
2022/07/04 20:53:39;;;;;;;28.17;13.63;;;;;;;36.01;46.14;101307.72;6245659;23;20866;-73
2022/07/04 20:56:05;;;;;;;27.50;13.43;;;;;;;35.90;46.39;101306.16;6243541;23;20370;-72
2022/07/04 20:58:32;;;;;;;29.03;15.57;;;;;;;35.95;46.50;101300.75;6243856;23;20375;-73
2022/07/04 21:00:58;;;;;;;21.20;11.63;;;;;;;35.85;46.50;101308.06;6243990;23;20812;-73
2022/07/04 21:03:24;;;;;;;23.40;12.67;;;;;;;35.81;46.34;101315.94;6243902;22;20436;-72
2022/07/04 21:05:50;;;;;;;23.33;14.07;;;;;;;35.88;46.35;101313.72;6243867;23;20382;-73
2022/07/04 21:08:16;;;;;;;34.10;13.27;;;;;;;36.04;45.56;101326.06;6243743;23;20421;-73
2022/07/04 21:10:43;;;;;;;24.80;12.10;;;;;;;35.91;46.00;101326.72;6245176;23;20426;-73
2022/07/04 21:13:09;;;;;;;26.27;15.00;;;;;;;35.75;45.99;101327.84;6243820;23;20394;-73
2022/07/04 21:15:35;;;;;;;39.10;15.37;;;;;;;35.80;45.68;101325.13;6243601;23;20977;-73
2022/07/04 21:18:01;;;;;;;39.50;14.30;;;;;;;35.61;46.54;101329.56;6243326;23;20402;-74
2022/07/04 21:20:28;;;;;;;40.33;16.80;;;;;;;35.75;46.59;101335.97;6245981;22;20457;-76
2022/07/04 21:22:54;;;;;;;29.77;13.03;;;;;;;35.80;46.18;101335.94;6243516;23;20508;-76
2022/07/04 21:25:20;;;;;;;30.87;12.67;;;;;;;35.99;45.67;101339.59;6243646;23;20370;-74
2022/07/04 21:27:46;;;;;;;36.63;15.40;;;;;;;36.02;45.00;101343.63;6243283;23;20912;-76
2022/07/04 21:30:13;;;;;;;59.10;16.03;;;;;;;35.94;45.25;101347.72;6241415;23;20374;-76
2022/07/04 21:32:40;;;;;;;23.83;11.93;;;;;;;36.15;45.56;101352.97;6243396;22;20366;-75
2022/07/04 21:35:07;;;;;;;28.30;13.13;;;;;;;36.04;45.42;101353.06;6243585;22;20373;-76
2022/07/04 21:37:33;;;;;;;29.50;12.97;;;;;;;36.01;45.79;101360.91;6242082;23;20381;-77
2022/07/04 21:39:59;;;;;;;33.93;13.53;;;;;;;35.60;46.22;101358.44;6243304;23;20472;-77
2022/07/04 21:42:25;;;;;;;31.17;13.10;;;;;;;35.57;46.60;101358.19;6242713;23;20745;-76
2022/07/04 21:44:51;;;;;;;36.67;16.67;;;;;;;35.53;46.79;101357.94;6243390;23;20383;-76
2022/07/04 21:47:18;;;;;;;31.93;14.17;;;;;;;35.42;46.22;101345.53;6243728;23;20834;-77
2022/07/04 21:49:44;;;;;;;23.50;13.00;;;;;;;35.26;47.46;101358.28;6243508;22;20473;-76
2022/07/04 21:52:10;;;;;;;24.37;12.60;;;;;;;35.31;47.26;101352.88;6243236;23;20437;-74
2022/07/04 21:54:36;;;;;;;41.07;15.23;;;;;;;35.27;47.20;101362.59;6243583;23;20885;-74
2022/07/04 21:57:02;;;;;;;38.60;12.23;;;;;;;35.18;47.20;101351.59;6245444;22;20931;-76
2022/07/04 21:59:28;;;;;;;34.63;12.70;;;;;;;35.33;47.00;101366.91;6243328;23;20386;-77
2022/07/04 22:01:55;;;;;;;37.13;15.60;;;;;;;35.57;46.46;101356.31;6243409;23;20464;-76
2022/07/04 22:04:21;;;;;;;23.27;12.97;;;;;;;35.35;47.56;101351.22;6243334;23;20393;-75
2022/07/04 22:06:47;;;;;;;40.53;14.97;;;;;;;35.44;46.77;101360.41;6243401;23;20465;-75
2022/07/04 22:09:13;;;;;;;33.90;13.90;;;;;;;35.55;46.77;101363.06;6245596;22;20355;-74
2022/07/04 22:11:39;;;;;;;24.43;12.93;;;;;;;35.59;46.39;101375.72;6243374;23;20386;-76
2022/07/04 22:14:05;;;;;;;27.40;14.40;;;;;;;35.56;46.84;101376.28;6243382;23;20405;-76
2022/07/04 22:16:31;;;;;;;20.33;12.70;;;;;;;35.60;46.76;101376.50;6243354;23;20383;-74